sensor_id;sensor_type;location;lat;lon;timestamp;temperature;humidity
19252;DHT22;9760;50.944;5.304;2024-02-15T00:00:19;12.40;99.90
19252;DHT22;9760;50.944;5.304;2024-02-15T00:02:44;12.30;99.90
19252;DHT22;9760;50.944;5.304;2024-02-15T00:05:11;12.30;99.90
19252;DHT22;9760;50.944;5.304;2024-02-15T00:07:37;12.30;99.90
19252;DHT22;9760;50.944;5.304;2024-02-15T00:10:03;12.30;99.90
19252;DHT22;9760;50.944;5.304;2024-02-15T00:12:30;12.30;99.90
19252;DHT22;9760;50.944;5.304;2024-02-15T00:14:55;12.30;99.90
19252;DHT22;9760;50.944;5.304;2024-02-15T00:17:27;12.30;99.90
19252;DHT22;9760;50.944;5.304;2024-02-15T00:19:56;12.30;99.90
19252;DHT22;9760;50.944;5.304;2024-02-15T00:22:21;12.30;99.90
19252;DHT22;9760;50.944;5.304;2024-02-15T00:24:48;12.30;99.90
19252;DHT22;9760;50.944;5.304;2024-02-15T00:27:16;12.20;99.90
19252;DHT22;9760;50.944;5.304;2024-02-15T00:29:42;12.30;99.90
19252;DHT22;9760;50.944;5.304;2024-02-15T00:32:09;12.30;99.90
19252;DHT22;9760;50.944;5.304;2024-02-15T00:34:36;12.40;99.90
19252;DHT22;9760;50.944;5.304;2024-02-15T00:37:04;12.40;99.90
19252;DHT22;9760;50.944;5.304;2024-02-15T00:39:30;12.40;99.90
19252;DHT22;9760;50.944;5.304;2024-02-15T00:41:57;12.40;99.90
19252;DHT22;9760;50.944;5.304;2024-02-15T00:44:22;12.40;99.90
19252;DHT22;9760;50.944;5.304;2024-02-15T00:46:48;12.40;99.90
19252;DHT22;9760;50.944;5.304;2024-02-15T00:49:14;12.40;99.90
19252;DHT22;9760;50.944;5.304;2024-02-15T00:51:39;12.40;99.90
19252;DHT22;9760;50.944;5.304;2024-02-15T00:54:05;12.40;99.90
19252;DHT22;9760;50.944;5.304;2024-02-15T00:56:31;12.40;99.90
19252;DHT22;9760;50.944;5.304;2024-02-15T00:59:01;12.40;99.90
19252;DHT22;9760;50.944;5.304;2024-02-15T01:01:27;12.40;99.90
19252;DHT22;9760;50.944;5.304;2024-02-15T01:03:52;12.40;99.90
19252;DHT22;9760;50.944;5.304;2024-02-15T01:06:18;12.40;99.90
19252;DHT22;9760;50.944;5.304;2024-02-15T01:08:44;12.40;99.90
19252;DHT22;9760;50.944;5.304;2024-02-15T01:11:10;12.40;99.90
19252;DHT22;9760;50.944;5.304;2024-02-15T01:13:36;12.40;99.90
19252;DHT22;9760;50.944;5.304;2024-02-15T01:16:01;12.40;99.90
19252;DHT22;9760;50.944;5.304;2024-02-15T01:18:30;12.50;99.90
19252;DHT22;9760;50.944;5.304;2024-02-15T01:20:57;12.40;99.90
19252;DHT22;9760;50.944;5.304;2024-02-15T01:23:23;12.50;99.90
19252;DHT22;9760;50.944;5.304;2024-02-15T01:25:48;12.50;99.90
19252;DHT22;9760;50.944;5.304;2024-02-15T01:28:14;12.50;99.90
19252;DHT22;9760;50.944;5.304;2024-02-15T01:30:40;12.50;99.90
19252;DHT22;9760;50.944;5.304;2024-02-15T01:33:12;12.50;99.90
19252;DHT22;9760;50.944;5.304;2024-02-15T01:35:38;12.50;99.90
19252;DHT22;9760;50.944;5.304;2024-02-15T01:38:05;12.50;99.90
19252;DHT22;9760;50.944;5.304;2024-02-15T01:40:30;12.50;99.90
19252;DHT22;9760;50.944;5.304;2024-02-15T01:42:56;12.50;99.90
19252;DHT22;9760;50.944;5.304;2024-02-15T01:45:24;12.50;99.90
19252;DHT22;9760;50.944;5.304;2024-02-15T01:47:51;12.50;99.90
19252;DHT22;9760;50.944;5.304;2024-02-15T01:50:17;12.50;99.90
19252;DHT22;9760;50.944;5.304;2024-02-15T01:52:46;12.50;99.90
19252;DHT22;9760;50.944;5.304;2024-02-15T01:55:13;12.50;99.90
19252;DHT22;9760;50.944;5.304;2024-02-15T01:57:44;12.60;99.90
19252;DHT22;9760;50.944;5.304;2024-02-15T02:00:11;12.60;99.90
19252;DHT22;9760;50.944;5.304;2024-02-15T02:02:39;12.50;99.90
19252;DHT22;9760;50.944;5.304;2024-02-15T02:05:07;12.50;99.90
19252;DHT22;9760;50.944;5.304;2024-02-15T02:07:33;12.50;99.90
19252;DHT22;9760;50.944;5.304;2024-02-15T02:09:59;12.50;99.90
19252;DHT22;9760;50.944;5.304;2024-02-15T02:12:25;12.50;99.90
19252;DHT22;9760;50.944;5.304;2024-02-15T02:14:55;12.50;99.90
19252;DHT22;9760;50.944;5.304;2024-02-15T02:17:21;12.60;99.90
19252;DHT22;9760;50.944;5.304;2024-02-15T02:19:47;12.50;99.90
19252;DHT22;9760;50.944;5.304;2024-02-15T02:22:16;12.50;99.90
19252;DHT22;9760;50.944;5.304;2024-02-15T02:25:07;12.50;99.90
19252;DHT22;9760;50.944;5.304;2024-02-15T02:27:36;12.50;99.90
19252;DHT22;9760;50.944;5.304;2024-02-15T02:30:11;12.60;99.90
19252;DHT22;9760;50.944;5.304;2024-02-15T02:32:43;12.60;99.90
19252;DHT22;9760;50.944;5.304;2024-02-15T02:35:08;12.60;99.90
19252;DHT22;9760;50.944;5.304;2024-02-15T02:37:38;12.50;99.90
19252;DHT22;9760;50.944;5.304;2024-02-15T02:40:05;12.50;99.90
19252;DHT22;9760;50.944;5.304;2024-02-15T02:45:16;12.60;99.90
19252;DHT22;9760;50.944;5.304;2024-02-15T02:47:42;12.60;99.90
19252;DHT22;9760;50.944;5.304;2024-02-15T02:50:08;12.60;99.90
19252;DHT22;9760;50.944;5.304;2024-02-15T02:52:33;12.60;99.90
19252;DHT22;9760;50.944;5.304;2024-02-15T02:54:59;12.60;99.90
19252;DHT22;9760;50.944;5.304;2024-02-15T02:57:25;12.60;99.90
19252;DHT22;9760;50.944;5.304;2024-02-15T02:59:51;12.60;99.90
19252;DHT22;9760;50.944;5.304;2024-02-15T03:02:17;12.50;99.90
19252;DHT22;9760;50.944;5.304;2024-02-15T03:04:43;12.50;99.90
19252;DHT22;9760;50.944;5.304;2024-02-15T03:07:09;12.50;99.90
19252;DHT22;9760;50.944;5.304;2024-02-15T03:09:35;12.50;99.90
19252;DHT22;9760;50.944;5.304;2024-02-15T03:12:02;12.50;99.90
19252;DHT22;9760;50.944;5.304;2024-02-15T03:14:29;12.50;99.90
19252;DHT22;9760;50.944;5.304;2024-02-15T03:16:55;12.50;99.90
19252;DHT22;9760;50.944;5.304;2024-02-15T03:19:21;12.50;99.90
19252;DHT22;9760;50.944;5.304;2024-02-15T03:21:48;12.50;99.90
19252;DHT22;9760;50.944;5.304;2024-02-15T03:24:14;12.50;99.90
19252;DHT22;9760;50.944;5.304;2024-02-15T03:26:39;12.50;99.90
19252;DHT22;9760;50.944;5.304;2024-02-15T03:29:05;12.50;99.90
19252;DHT22;9760;50.944;5.304;2024-02-15T03:31:33;12.50;99.90
19252;DHT22;9760;50.944;5.304;2024-02-15T03:34:00;12.60;99.90
19252;DHT22;9760;50.944;5.304;2024-02-15T03:36:26;12.60;99.90
19252;DHT22;9760;50.944;5.304;2024-02-15T03:38:52;12.60;99.90
19252;DHT22;9760;50.944;5.304;2024-02-15T03:41:19;12.60;99.90
19252;DHT22;9760;50.944;5.304;2024-02-15T03:43:45;12.60;99.90
19252;DHT22;9760;50.944;5.304;2024-02-15T03:46:12;12.60;99.90
19252;DHT22;9760;50.944;5.304;2024-02-15T03:48:42;12.60;99.90
19252;DHT22;9760;50.944;5.304;2024-02-15T03:51:07;12.60;99.90
19252;DHT22;9760;50.944;5.304;2024-02-15T03:53:34;12.60;99.90
19252;DHT22;9760;50.944;5.304;2024-02-15T03:56:04;12.50;99.90
19252;DHT22;9760;50.944;5.304;2024-02-15T03:58:29;12.50;99.90
19252;DHT22;9760;50.944;5.304;2024-02-15T04:00:58;12.40;99.90
19252;DHT22;9760;50.944;5.304;2024-02-15T04:03:24;12.40;99.90
19252;DHT22;9760;50.944;5.304;2024-02-15T04:05:50;12.30;99.90
19252;DHT22;9760;50.944;5.304;2024-02-15T04:08:15;12.20;99.90
19252;DHT22;9760;50.944;5.304;2024-02-15T04:10:42;12.20;99.90
19252;DHT22;9760;50.944;5.304;2024-02-15T04:13:08;12.20;99.90
19252;DHT22;9760;50.944;5.304;2024-02-15T04:15:34;12.20;99.90
19252;DHT22;9760;50.944;5.304;2024-02-15T04:18:00;12.20;99.90
19252;DHT22;9760;50.944;5.304;2024-02-15T04:20:27;12.20;99.90
19252;DHT22;9760;50.944;5.304;2024-02-15T04:22:54;12.20;99.90
19252;DHT22;9760;50.944;5.304;2024-02-15T04:25:22;12.10;99.90
19252;DHT22;9760;50.944;5.304;2024-02-15T04:27:53;12.10;99.90
19252;DHT22;9760;50.944;5.304;2024-02-15T04:30:19;12.10;99.90
19252;DHT22;9760;50.944;5.304;2024-02-15T04:32:46;12.10;99.90
19252;DHT22;9760;50.944;5.304;2024-02-15T04:35:12;12.10;99.90
19252;DHT22;9760;50.944;5.304;2024-02-15T04:37:38;12.10;99.90
19252;DHT22;9760;50.944;5.304;2024-02-15T04:40:04;12.10;99.90
19252;DHT22;9760;50.944;5.304;2024-02-15T04:42:36;12.10;99.90
19252;DHT22;9760;50.944;5.304;2024-02-15T04:45:06;12.10;99.90
19252;DHT22;9760;50.944;5.304;2024-02-15T04:47:36;12.10;99.90
19252;DHT22;9760;50.944;5.304;2024-02-15T04:50:02;12.00;99.90
19252;DHT22;9760;50.944;5.304;2024-02-15T04:52:28;12.00;99.90
19252;DHT22;9760;50.944;5.304;2024-02-15T04:54:55;12.10;99.90
19252;DHT22;9760;50.944;5.304;2024-02-15T04:57:20;12.10;99.90
19252;DHT22;9760;50.944;5.304;2024-02-15T04:59:47;12.10;99.90
19252;DHT22;9760;50.944;5.304;2024-02-15T05:02:14;12.00;99.90
19252;DHT22;9760;50.944;5.304;2024-02-15T05:04:39;12.10;99.90
19252;DHT22;9760;50.944;5.304;2024-02-15T05:07:11;12.10;99.90
19252;DHT22;9760;50.944;5.304;2024-02-15T05:09:36;12.10;99.90
19252;DHT22;9760;50.944;5.304;2024-02-15T05:12:02;12.10;99.90
19252;DHT22;9760;50.944;5.304;2024-02-15T05:14:29;12.00;99.90
19252;DHT22;9760;50.944;5.304;2024-02-15T05:16:55;12.00;99.90
19252;DHT22;9760;50.944;5.304;2024-02-15T05:19:20;12.10;99.90
19252;DHT22;9760;50.944;5.304;2024-02-15T05:21:47;12.00;99.90
19252;DHT22;9760;50.944;5.304;2024-02-15T05:24:13;12.10;99.90
19252;DHT22;9760;50.944;5.304;2024-02-15T05:26:40;12.10;99.90
19252;DHT22;9760;50.944;5.304;2024-02-15T05:29:08;12.10;99.90
19252;DHT22;9760;50.944;5.304;2024-02-15T05:31:34;12.10;99.90
19252;DHT22;9760;50.944;5.304;2024-02-15T05:34:04;12.10;99.90
19252;DHT22;9760;50.944;5.304;2024-02-15T05:36:30;12.10;99.90
19252;DHT22;9760;50.944;5.304;2024-02-15T05:38:56;12.10;99.90
19252;DHT22;9760;50.944;5.304;2024-02-15T05:41:23;12.10;99.90
19252;DHT22;9760;50.944;5.304;2024-02-15T05:43:50;12.10;99.90
19252;DHT22;9760;50.944;5.304;2024-02-15T05:46:18;12.10;99.90
19252;DHT22;9760;50.944;5.304;2024-02-15T05:48:44;12.10;99.90
19252;DHT22;9760;50.944;5.304;2024-02-15T05:51:09;12.10;99.90
19252;DHT22;9760;50.944;5.304;2024-02-15T05:53:35;12.20;99.90
19252;DHT22;9760;50.944;5.304;2024-02-15T05:56:08;12.10;99.90
19252;DHT22;9760;50.944;5.304;2024-02-15T05:58:36;12.10;99.90
19252;DHT22;9760;50.944;5.304;2024-02-15T06:01:03;12.10;99.90
19252;DHT22;9760;50.944;5.304;2024-02-15T06:03:33;12.10;99.90
19252;DHT22;9760;50.944;5.304;2024-02-15T06:05:59;12.10;99.90
19252;DHT22;9760;50.944;5.304;2024-02-15T06:08:28;12.10;99.90
19252;DHT22;9760;50.944;5.304;2024-02-15T06:10:55;12.10;99.90
19252;DHT22;9760;50.944;5.304;2024-02-15T06:13:22;12.10;99.90
19252;DHT22;9760;50.944;5.304;2024-02-15T06:15:48;12.10;99.90
19252;DHT22;9760;50.944;5.304;2024-02-15T06:18:19;12.10;99.90
19252;DHT22;9760;50.944;5.304;2024-02-15T06:20:47;12.00;99.90
19252;DHT22;9760;50.944;5.304;2024-02-15T06:23:18;12.00;99.90
19252;DHT22;9760;50.944;5.304;2024-02-15T06:25:47;12.00;99.90
19252;DHT22;9760;50.944;5.304;2024-02-15T06:28:13;12.00;99.90
19252;DHT22;9760;50.944;5.304;2024-02-15T06:30:48;12.00;99.90
19252;DHT22;9760;50.944;5.304;2024-02-15T06:33:32;12.00;99.90
19252;DHT22;9760;50.944;5.304;2024-02-15T06:36:16;12.00;99.90
19252;DHT22;9760;50.944;5.304;2024-02-15T06:39:00;12.00;99.90
19252;DHT22;9760;50.944;5.304;2024-02-15T06:41:44;11.90;99.90
19252;DHT22;9760;50.944;5.304;2024-02-15T06:44:10;11.90;99.90
19252;DHT22;9760;50.944;5.304;2024-02-15T06:46:35;11.90;99.90
19252;DHT22;9760;50.944;5.304;2024-02-15T06:49:01;11.90;99.90
19252;DHT22;9760;50.944;5.304;2024-02-15T06:51:28;11.90;99.90
19252;DHT22;9760;50.944;5.304;2024-02-15T06:53:54;11.90;99.90
19252;DHT22;9760;50.944;5.304;2024-02-15T06:56:21;11.90;99.90
19252;DHT22;9760;50.944;5.304;2024-02-15T06:58:47;11.90;99.90
19252;DHT22;9760;50.944;5.304;2024-02-15T07:01:14;11.90;99.90
19252;DHT22;9760;50.944;5.304;2024-02-15T07:03:44;11.90;99.90
19252;DHT22;9760;50.944;5.304;2024-02-15T07:06:11;11.90;99.90
19252;DHT22;9760;50.944;5.304;2024-02-15T07:08:39;11.90;99.90
19252;DHT22;9760;50.944;5.304;2024-02-15T07:11:07;11.90;99.90
19252;DHT22;9760;50.944;5.304;2024-02-15T07:13:35;11.90;99.90
19252;DHT22;9760;50.944;5.304;2024-02-15T07:16:01;11.90;99.90
19252;DHT22;9760;50.944;5.304;2024-02-15T07:18:28;12.00;99.90
19252;DHT22;9760;50.944;5.304;2024-02-15T07:20:54;12.00;99.90
19252;DHT22;9760;50.944;5.304;2024-02-15T07:23:21;12.00;99.90
19252;DHT22;9760;50.944;5.304;2024-02-15T07:25:46;12.00;99.90
19252;DHT22;9760;50.944;5.304;2024-02-15T07:28:14;12.00;99.90
19252;DHT22;9760;50.944;5.304;2024-02-15T07:30:39;12.00;99.90
19252;DHT22;9760;50.944;5.304;2024-02-15T07:33:05;12.10;99.90
19252;DHT22;9760;50.944;5.304;2024-02-15T07:35:32;12.10;99.90
19252;DHT22;9760;50.944;5.304;2024-02-15T07:37:58;12.10;99.90
19252;DHT22;9760;50.944;5.304;2024-02-15T07:40:26;12.10;99.90
19252;DHT22;9760;50.944;5.304;2024-02-15T07:42:56;12.10;99.90
19252;DHT22;9760;50.944;5.304;2024-02-15T07:45:22;12.20;99.90
19252;DHT22;9760;50.944;5.304;2024-02-15T07:47:48;12.20;99.90
19252;DHT22;9760;50.944;5.304;2024-02-15T07:50:18;12.20;99.90
19252;DHT22;9760;50.944;5.304;2024-02-15T07:52:47;12.20;99.90
19252;DHT22;9760;50.944;5.304;2024-02-15T07:55:13;12.30;99.90
19252;DHT22;9760;50.944;5.304;2024-02-15T07:57:39;12.40;99.90
19252;DHT22;9760;50.944;5.304;2024-02-15T08:00:06;12.40;99.90
19252;DHT22;9760;50.944;5.304;2024-02-15T08:02:37;12.50;99.90
19252;DHT22;9760;50.944;5.304;2024-02-15T08:05:07;12.50;99.90
19252;DHT22;9760;50.944;5.304;2024-02-15T08:07:43;12.60;99.90
19252;DHT22;9760;50.944;5.304;2024-02-15T08:10:12;12.60;99.90
19252;DHT22;9760;50.944;5.304;2024-02-15T08:12:43;12.70;99.90
19252;DHT22;9760;50.944;5.304;2024-02-15T08:15:09;12.70;99.90
19252;DHT22;9760;50.944;5.304;2024-02-15T08:17:40;12.70;99.90
19252;DHT22;9760;50.944;5.304;2024-02-15T08:20:09;12.80;99.90
19252;DHT22;9760;50.944;5.304;2024-02-15T08:22:35;12.80;99.90
19252;DHT22;9760;50.944;5.304;2024-02-15T08:25:07;12.80;99.90
19252;DHT22;9760;50.944;5.304;2024-02-15T08:27:40;12.80;99.90
19252;DHT22;9760;50.944;5.304;2024-02-15T08:30:13;12.90;99.90
19252;DHT22;9760;50.944;5.304;2024-02-15T08:32:43;12.90;99.90
19252;DHT22;9760;50.944;5.304;2024-02-15T08:35:10;12.90;99.90
19252;DHT22;9760;50.944;5.304;2024-02-15T08:37:36;12.90;99.90
19252;DHT22;9760;50.944;5.304;2024-02-15T08:40:07;12.90;99.90
19252;DHT22;9760;50.944;5.304;2024-02-15T08:42:42;13.00;99.90
19252;DHT22;9760;50.944;5.304;2024-02-15T08:45:09;13.00;99.90
19252;DHT22;9760;50.944;5.304;2024-02-15T08:47:36;13.00;99.90
19252;DHT22;9760;50.944;5.304;2024-02-15T08:50:03;13.00;99.90
19252;DHT22;9760;50.944;5.304;2024-02-15T08:52:29;13.10;99.90
19252;DHT22;9760;50.944;5.304;2024-02-15T08:54:55;13.10;99.90
19252;DHT22;9760;50.944;5.304;2024-02-15T08:57:23;13.10;99.90
19252;DHT22;9760;50.944;5.304;2024-02-15T08:59:49;13.20;99.90
19252;DHT22;9760;50.944;5.304;2024-02-15T09:02:17;13.20;99.90
19252;DHT22;9760;50.944;5.304;2024-02-15T09:04:43;13.30;99.90
19252;DHT22;9760;50.944;5.304;2024-02-15T09:07:08;13.30;99.90
19252;DHT22;9760;50.944;5.304;2024-02-15T09:09:35;13.30;99.90
19252;DHT22;9760;50.944;5.304;2024-02-15T09:12:02;13.40;99.90
19252;DHT22;9760;50.944;5.304;2024-02-15T09:14:32;13.40;99.90
19252;DHT22;9760;50.944;5.304;2024-02-15T09:16:59;13.50;99.90
19252;DHT22;9760;50.944;5.304;2024-02-15T09:19:25;13.50;99.90
19252;DHT22;9760;50.944;5.304;2024-02-15T09:21:51;13.60;99.90
19252;DHT22;9760;50.944;5.304;2024-02-15T09:24:16;13.70;99.90
19252;DHT22;9760;50.944;5.304;2024-02-15T09:26:42;13.80;99.90
19252;DHT22;9760;50.944;5.304;2024-02-15T09:29:09;13.80;99.90
19252;DHT22;9760;50.944;5.304;2024-02-15T09:31:35;13.90;99.90
19252;DHT22;9760;50.944;5.304;2024-02-15T09:34:02;14.00;99.90
19252;DHT22;9760;50.944;5.304;2024-02-15T09:36:34;14.00;99.90
19252;DHT22;9760;50.944;5.304;2024-02-15T09:39:00;14.10;99.90
19252;DHT22;9760;50.944;5.304;2024-02-15T09:41:25;14.10;99.90
19252;DHT22;9760;50.944;5.304;2024-02-15T09:43:51;14.20;99.90
19252;DHT22;9760;50.944;5.304;2024-02-15T09:46:17;14.20;99.90
19252;DHT22;9760;50.944;5.304;2024-02-15T09:48:47;14.30;99.90
19252;DHT22;9760;50.944;5.304;2024-02-15T09:51:16;14.30;99.90
19252;DHT22;9760;50.944;5.304;2024-02-15T09:53:43;14.40;99.90
19252;DHT22;9760;50.944;5.304;2024-02-15T09:56:10;14.40;99.90
19252;DHT22;9760;50.944;5.304;2024-02-15T09:58:36;14.50;99.90
19252;DHT22;9760;50.944;5.304;2024-02-15T10:01:04;14.70;99.90
19252;DHT22;9760;50.944;5.304;2024-02-15T10:03:39;14.80;99.90
19252;DHT22;9760;50.944;5.304;2024-02-15T10:06:08;14.90;99.90
19252;DHT22;9760;50.944;5.304;2024-02-15T10:08:33;14.90;99.90
19252;DHT22;9760;50.944;5.304;2024-02-15T10:11:06;15.00;99.90
19252;DHT22;9760;50.944;5.304;2024-02-15T10:13:35;15.00;99.90
19252;DHT22;9760;50.944;5.304;2024-02-15T10:16:19;15.10;99.90
19252;DHT22;9760;50.944;5.304;2024-02-15T10:18:50;15.20;99.90
19252;DHT22;9760;50.944;5.304;2024-02-15T10:21:28;15.10;99.90
19252;DHT22;9760;50.944;5.304;2024-02-15T10:24:05;15.10;99.90
19252;DHT22;9760;50.944;5.304;2024-02-15T10:26:31;15.20;99.90
19252;DHT22;9760;50.944;5.304;2024-02-15T10:29:08;15.30;99.90
19252;DHT22;9760;50.944;5.304;2024-02-15T10:31:55;15.30;99.90
19252;DHT22;9760;50.944;5.304;2024-02-15T10:34:22;15.40;99.90
19252;DHT22;9760;50.944;5.304;2024-02-15T10:36:49;15.40;99.90
19252;DHT22;9760;50.944;5.304;2024-02-15T10:39:16;15.50;99.90
19252;DHT22;9760;50.944;5.304;2024-02-15T10:41:52;15.50;99.90
19252;DHT22;9760;50.944;5.304;2024-02-15T10:44:25;15.50;99.90
19252;DHT22;9760;50.944;5.304;2024-02-15T10:46:52;15.50;99.90
19252;DHT22;9760;50.944;5.304;2024-02-15T10:49:19;15.50;99.90
19252;DHT22;9760;50.944;5.304;2024-02-15T10:54:46;15.60;99.90
19252;DHT22;9760;50.944;5.304;2024-02-15T10:57:13;15.70;99.90
19252;DHT22;9760;50.944;5.304;2024-02-15T11:02:29;16.00;99.90
19252;DHT22;9760;50.944;5.304;2024-02-15T11:04:58;16.00;99.90
19252;DHT22;9760;50.944;5.304;2024-02-15T11:07:29;16.10;99.90
19252;DHT22;9760;50.944;5.304;2024-02-15T11:09:55;16.10;99.90
19252;DHT22;9760;50.944;5.304;2024-02-15T11:12:22;16.20;99.90
19252;DHT22;9760;50.944;5.304;2024-02-15T11:14:52;16.20;99.90
19252;DHT22;9760;50.944;5.304;2024-02-15T11:20:03;16.30;99.90
19252;DHT22;9760;50.944;5.304;2024-02-15T11:22:34;16.20;99.90
19252;DHT22;9760;50.944;5.304;2024-02-15T11:25:05;16.30;99.90
19252;DHT22;9760;50.944;5.304;2024-02-15T11:27:37;16.40;99.90
19252;DHT22;9760;50.944;5.304;2024-02-15T11:30:04;16.40;99.90
19252;DHT22;9760;50.944;5.304;2024-02-15T11:32:44;16.40;99.90
19252;DHT22;9760;50.944;5.304;2024-02-15T11:35:14;16.40;99.90
19252;DHT22;9760;50.944;5.304;2024-02-15T11:40:20;16.40;99.90
19252;DHT22;9760;50.944;5.304;2024-02-15T11:42:53;16.40;99.90
19252;DHT22;9760;50.944;5.304;2024-02-15T11:45:21;16.40;99.90
19252;DHT22;9760;50.944;5.304;2024-02-15T11:47:53;16.50;99.90
19252;DHT22;9760;50.944;5.304;2024-02-15T11:50:20;16.50;99.90
19252;DHT22;9760;50.944;5.304;2024-02-15T11:52:47;16.50;99.90
19252;DHT22;9760;50.944;5.304;2024-02-15T11:55:23;16.60;99.90
19252;DHT22;9760;50.944;5.304;2024-02-15T11:57:58;16.60;99.90
19252;DHT22;9760;50.944;5.304;2024-02-15T12:00:33;16.60;99.90
19252;DHT22;9760;50.944;5.304;2024-02-15T12:03:18;16.60;99.90
19252;DHT22;9760;50.944;5.304;2024-02-15T12:06:03;16.50;99.90
19252;DHT22;9760;50.944;5.304;2024-02-15T12:08:49;16.40;99.90
19252;DHT22;9760;50.944;5.304;2024-02-15T12:11:34;16.40;99.90
19252;DHT22;9760;50.944;5.304;2024-02-15T12:14:19;16.50;99.90
19252;DHT22;9760;50.944;5.304;2024-02-15T12:17:10;16.50;99.90
19252;DHT22;9760;50.944;5.304;2024-02-15T12:19:56;16.60;99.90
19252;DHT22;9760;50.944;5.304;2024-02-15T12:22:32;16.60;99.90
19252;DHT22;9760;50.944;5.304;2024-02-15T12:25:02;16.70;99.90
19252;DHT22;9760;50.944;5.304;2024-02-15T12:27:37;16.70;99.90
19252;DHT22;9760;50.944;5.304;2024-02-15T12:30:05;16.90;99.90
19252;DHT22;9760;50.944;5.304;2024-02-15T12:32:32;17.00;99.90
19252;DHT22;9760;50.944;5.304;2024-02-15T12:37:45;17.10;99.90
19252;DHT22;9760;50.944;5.304;2024-02-15T12:40:17;17.00;99.90
19252;DHT22;9760;50.944;5.304;2024-02-15T12:42:46;16.90;99.90
19252;DHT22;9760;50.944;5.304;2024-02-15T12:45:18;16.90;99.90
19252;DHT22;9760;50.944;5.304;2024-02-15T12:47:51;17.00;99.90
19252;DHT22;9760;50.944;5.304;2024-02-15T12:50:18;16.90;99.90
19252;DHT22;9760;50.944;5.304;2024-02-15T12:52:46;16.90;99.90
19252;DHT22;9760;50.944;5.304;2024-02-15T12:55:17;16.90;99.90
19252;DHT22;9760;50.944;5.304;2024-02-15T12:57:44;16.90;99.90
19252;DHT22;9760;50.944;5.304;2024-02-15T13:00:16;16.90;99.90
19252;DHT22;9760;50.944;5.304;2024-02-15T13:03:03;16.90;99.90
19252;DHT22;9760;50.944;5.304;2024-02-15T13:05:30;16.80;99.90
19252;DHT22;9760;50.944;5.304;2024-02-15T13:07:56;16.90;99.90
19252;DHT22;9760;50.944;5.304;2024-02-15T13:10:32;16.90;99.90
19252;DHT22;9760;50.944;5.304;2024-02-15T13:12:58;16.90;99.90
19252;DHT22;9760;50.944;5.304;2024-02-15T13:15:24;16.90;99.90
19252;DHT22;9760;50.944;5.304;2024-02-15T13:17:58;16.80;99.90
19252;DHT22;9760;50.944;5.304;2024-02-15T13:20:24;16.80;99.90
19252;DHT22;9760;50.944;5.304;2024-02-15T13:22:58;16.70;99.90
19252;DHT22;9760;50.944;5.304;2024-02-15T13:25:27;16.70;99.90
19252;DHT22;9760;50.944;5.304;2024-02-15T13:27:53;16.60;99.90
19252;DHT22;9760;50.944;5.304;2024-02-15T13:30:19;16.50;99.90
19252;DHT22;9760;50.944;5.304;2024-02-15T13:32:49;16.50;99.90
19252;DHT22;9760;50.944;5.304;2024-02-15T13:35:18;16.50;99.90
19252;DHT22;9760;50.944;5.304;2024-02-15T13:37:52;16.40;99.90
19252;DHT22;9760;50.944;5.304;2024-02-15T13:40:19;16.50;99.90
19252;DHT22;9760;50.944;5.304;2024-02-15T13:42:49;16.60;99.90
19252;DHT22;9760;50.944;5.304;2024-02-15T13:48:05;17.00;99.90
19252;DHT22;9760;50.944;5.304;2024-02-15T13:50:32;17.10;99.90
19252;DHT22;9760;50.944;5.304;2024-02-15T13:52:59;17.30;99.90
19252;DHT22;9760;50.944;5.304;2024-02-15T13:55:25;17.30;99.90
19252;DHT22;9760;50.944;5.304;2024-02-15T13:57:51;17.30;99.90
19252;DHT22;9760;50.944;5.304;2024-02-15T14:00:18;17.10;99.90
19252;DHT22;9760;50.944;5.304;2024-02-15T14:02:52;17.10;99.90
19252;DHT22;9760;50.944;5.304;2024-02-15T14:05:19;17.00;99.90
19252;DHT22;9760;50.944;5.304;2024-02-15T14:07:49;16.90;99.90
19252;DHT22;9760;50.944;5.304;2024-02-15T14:10:15;16.90;99.90
19252;DHT22;9760;50.944;5.304;2024-02-15T14:12:44;17.00;99.90
19252;DHT22;9760;50.944;5.304;2024-02-15T14:15:10;17.10;99.90
19252;DHT22;9760;50.944;5.304;2024-02-15T14:17:37;17.20;99.90
19252;DHT22;9760;50.944;5.304;2024-02-15T14:20:04;17.20;99.90
19252;DHT22;9760;50.944;5.304;2024-02-15T14:22:34;17.20;99.90
19252;DHT22;9760;50.944;5.304;2024-02-15T14:25:00;17.40;99.90
19252;DHT22;9760;50.944;5.304;2024-02-15T14:27:26;17.40;99.90
19252;DHT22;9760;50.944;5.304;2024-02-15T14:29:51;17.40;99.90
19252;DHT22;9760;50.944;5.304;2024-02-15T14:32:35;17.40;99.90
19252;DHT22;9760;50.944;5.304;2024-02-15T14:35:19;17.40;99.90
19252;DHT22;9760;50.944;5.304;2024-02-15T14:37:46;17.30;99.90
19252;DHT22;9760;50.944;5.304;2024-02-15T14:40:12;17.30;99.90
19252;DHT22;9760;50.944;5.304;2024-02-15T14:42:42;17.30;99.90
19252;DHT22;9760;50.944;5.304;2024-02-15T14:45:10;17.40;99.90
19252;DHT22;9760;50.944;5.304;2024-02-15T14:47:36;17.40;99.90
19252;DHT22;9760;50.944;5.304;2024-02-15T14:50:02;17.40;99.90
19252;DHT22;9760;50.944;5.304;2024-02-15T14:52:47;17.30;99.90
19252;DHT22;9760;50.944;5.304;2024-02-15T14:55:15;17.20;99.90
19252;DHT22;9760;50.944;5.304;2024-02-15T14:57:59;17.10;99.90
19252;DHT22;9760;50.944;5.304;2024-02-15T15:00:25;17.10;99.90
19252;DHT22;9760;50.944;5.304;2024-02-15T15:02:53;17.00;99.90
19252;DHT22;9760;50.944;5.304;2024-02-15T15:05:22;16.90;99.90
19252;DHT22;9760;50.944;5.304;2024-02-15T15:08:06;16.90;99.90
19252;DHT22;9760;50.944;5.304;2024-02-15T15:10:50;16.80;99.90
19252;DHT22;9760;50.944;5.304;2024-02-15T15:13:34;16.80;99.90
19252;DHT22;9760;50.944;5.304;2024-02-15T15:16:00;16.70;99.90
19252;DHT22;9760;50.944;5.304;2024-02-15T15:18:28;16.70;99.90
19252;DHT22;9760;50.944;5.304;2024-02-15T15:20:55;16.70;99.90
19252;DHT22;9760;50.944;5.304;2024-02-15T15:23:21;16.70;99.90
19252;DHT22;9760;50.944;5.304;2024-02-15T15:25:47;16.70;99.90
19252;DHT22;9760;50.944;5.304;2024-02-15T15:28:13;16.70;99.90
19252;DHT22;9760;50.944;5.304;2024-02-15T15:30:39;16.80;99.90
19252;DHT22;9760;50.944;5.304;2024-02-15T15:33:24;16.80;99.90
19252;DHT22;9760;50.944;5.304;2024-02-15T15:35:50;16.80;99.90
19252;DHT22;9760;50.944;5.304;2024-02-15T15:38:16;16.70;99.90
19252;DHT22;9760;50.944;5.304;2024-02-15T15:40:41;16.60;99.90
19252;DHT22;9760;50.944;5.304;2024-02-15T15:43:07;16.60;99.90
19252;DHT22;9760;50.944;5.304;2024-02-15T15:45:52;16.50;99.90
19252;DHT22;9760;50.944;5.304;2024-02-15T15:48:17;16.30;99.90
19252;DHT22;9760;50.944;5.304;2024-02-15T15:50:44;16.30;99.90
19252;DHT22;9760;50.944;5.304;2024-02-15T15:53:10;16.20;99.90
19252;DHT22;9760;50.944;5.304;2024-02-15T15:55:38;16.10;99.90
19252;DHT22;9760;50.944;5.304;2024-02-15T15:58:04;16.00;99.90
19252;DHT22;9760;50.944;5.304;2024-02-15T16:00:33;15.90;99.90
19252;DHT22;9760;50.944;5.304;2024-02-15T16:03:19;15.90;99.90
19252;DHT22;9760;50.944;5.304;2024-02-15T16:05:48;15.80;99.90
19252;DHT22;9760;50.944;5.304;2024-02-15T16:08:14;15.80;99.90
19252;DHT22;9760;50.944;5.304;2024-02-15T16:10:40;15.80;99.90
19252;DHT22;9760;50.944;5.304;2024-02-15T16:13:06;15.70;99.90